Time;durP1;ratioP1;P1;durP2;ratioP2;P2;SDS_P1;SDS_P2;PMS_P1;PMS_P2;Temp;Humidity;BMP_temperature;BMP_pressure;BME280_temperature;BME280_humidity;BME280_pressure;Samples;Min_cycle;Max_cycle;Signal;HPM_P1;HPM_P2
2021/04/25 00:01:20;;;;;;;12.98;7.10;;;3.70;61.50;;;;;;5093118;28;20417;-67
2021/04/25 00:03:46;;;;;;;11.57;6.32;;;3.70;61.60;;;;;;5093306;28;20016;-68
2021/04/25 00:06:12;;;;;;;10.43;5.45;;;3.70;61.70;;;;;;5092831;28;20061;-68
2021/04/25 00:08:37;;;;;;;8.82;6.03;;;3.70;61.80;;;;;;5092755;28;20571;-68
2021/04/25 00:11:03;;;;;;;11.00;5.30;;;3.60;61.80;;;;;;5071949;28;20047;-67
2021/04/25 00:13:30;;;;;;;13.13;4.90;;;3.60;61.80;;;;;;5084592;28;20024;-67
2021/04/25 00:15:56;;;;;;;11.63;5.03;;;3.60;62.00;;;;;;5073870;28;20019;-67
2021/04/25 00:18:22;;;;;;;10.65;5.57;;;3.60;62.20;;;;;;5082585;28;20012;-67
2021/04/25 00:20:49;;;;;;;16.38;7.90;;;3.50;62.30;;;;;;5092041;28;20059;-67
2021/04/25 00:23:15;;;;;;;15.45;10.07;;;3.50;62.40;;;;;;5083964;28;20052;-67
2021/04/25 00:25:41;;;;;;;15.20;8.15;;;3.50;62.50;;;;;;5086780;28;20047;-67
2021/04/25 00:28:06;;;;;;;12.60;6.47;;;3.50;62.50;;;;;;5092862;28;20471;-67
2021/04/25 00:30:32;;;;;;;11.80;5.97;;;3.50;62.70;;;;;;5092746;28;20434;-68
2021/04/25 00:32:58;;;;;;;11.30;6.05;;;3.40;62.70;;;;;;5090774;28;20058;-67
2021/04/25 00:35:23;;;;;;;10.43;5.65;;;3.40;62.90;;;;;;5086662;28;20070;-68
2021/04/25 00:37:50;;;;;;;12.35;6.10;;;3.40;63.00;;;;;;5096586;28;20035;-67
2021/04/25 00:40:17;;;;;;;9.98;5.68;;;3.40;63.10;;;;;;5087883;28;20017;-67
2021/04/25 00:42:43;;;;;;;11.00;5.75;;;3.40;63.20;;;;;;5089915;28;20024;-67
2021/04/25 00:45:15;;;;;;;13.40;8.27;;;3.30;63.30;;;;;;5095296;28;20019;-68
2021/04/25 00:47:43;;;;;;;14.90;8.32;;;3.30;63.50;;;;;;5096909;28;20122;-67
2021/04/25 00:50:10;;;;;;;8.35;5.68;;;3.30;63.60;;;;;;5095232;28;20042;-68
2021/04/25 00:52:42;;;;;;;9.73;5.47;;;3.30;63.80;;;;;;5096850;28;20020;-67
2021/04/25 00:55:09;;;;;;;8.68;5.55;;;3.30;63.90;;;;;;5095307;28;20023;-68
2021/04/25 00:57:36;;;;;;;9.10;5.40;;;3.30;64.00;;;;;;5087506;28;20089;-68
2021/04/25 01:00:06;;;;;;;10.30;5.50;;;3.30;64.00;;;;;;5092412;28;20373;-68
2021/04/25 01:02:32;;;;;;;9.60;5.30;;;3.30;64.00;;;;;;5087433;28;20068;-68
2021/04/25 01:04:58;;;;;;;13.25;5.90;;;3.30;64.00;;;;;;5089740;28;20047;-69
2021/04/25 01:07:23;;;;;;;13.20;6.35;;;3.30;64.00;;;;;;5097669;28;20017;-67
2021/04/25 01:09:49;;;;;;;11.65;6.85;;;3.20;64.00;;;;;;5097859;28;20444;-68
2021/04/25 01:12:15;;;;;;;14.82;9.02;;;3.20;64.20;;;;;;5081717;28;20024;-68
2021/04/25 01:14:41;;;;;;;20.48;11.13;;;3.10;64.30;;;;;;5096775;28;20022;-67
2021/04/25 01:17:06;;;;;;;13.90;7.75;;;3.10;64.60;;;;;;5096309;28;20028;-68
2021/04/25 01:19:32;;;;;;;15.50;8.13;;;2.90;64.80;;;;;;5096559;28;20443;-68
2021/04/25 01:21:58;;;;;;;15.95;9.68;;;2.80;64.80;;;;;;5080529;28;20398;-69
2021/04/25 01:24:23;;;;;;;14.70;8.23;;;2.80;65.00;;;;;;5096125;28;20106;-68
2021/04/25 01:26:49;;;;;;;18.35;9.75;;;2.70;65.20;;;;;;5095775;28;20052;-68
2021/04/25 01:29:15;;;;;;;15.95;8.15;;;2.70;65.50;;;;;;5076152;28;20054;-67
2021/04/25 01:31:41;;;;;;;16.55;8.00;;;2.70;65.60;;;;;;5091358;28;20025;-68
2021/04/25 01:34:07;;;;;;;18.27;8.43;;;2.70;65.90;;;;;;5076502;28;20029;-68
2021/04/25 01:36:33;;;;;;;16.60;8.68;;;2.60;65.90;;;;;;5111296;28;20020;-68
2021/04/25 01:38:59;;;;;;;19.40;9.10;;;2.60;66.00;;;;;;5094392;28;20024;-68
2021/04/25 01:41:24;;;;;;;14.77;8.43;;;2.60;66.20;;;;;;5094197;28;20028;-68
2021/04/25 01:43:50;;;;;;;21.27;9.75;;;2.60;66.40;;;;;;5094645;28;20078;-67
2021/04/25 01:46:16;;;;;;;20.55;10.20;;;2.60;66.50;;;;;;5079803;28;20352;-68
2021/04/25 01:48:43;;;;;;;20.65;9.60;;;2.60;66.60;;;;;;5095257;28;20051;-68
2021/04/25 01:51:09;;;;;;;20.33;10.00;;;2.60;66.80;;;;;;5094554;28;20060;-68
2021/04/25 01:53:35;;;;;;;20.23;9.07;;;2.60;67.00;;;;;;5095297;28;20038;-68
2021/04/25 01:56:03;;;;;;;21.67;9.27;;;2.60;66.90;;;;;;5095610;28;20404;-68
2021/04/25 01:58:29;;;;;;;23.08;10.25;;;2.60;67.10;;;;;;5094979;28;20070;-68
2021/04/25 02:00:55;;;;;;;28.40;11.82;;;2.50;67.10;;;;;;5090679;28;20101;-68
2021/04/25 02:03:20;;;;;;;18.58;9.35;;;2.50;67.40;;;;;;5089916;28;20020;-68
2021/04/25 02:05:46;;;;;;;22.27;11.55;;;2.50;67.60;;;;;;5095745;28;20107;-68
2021/04/25 02:08:13;;;;;;;18.45;10.50;;;2.50;68.00;;;;;;5080658;28;20017;-68
2021/04/25 02:10:40;;;;;;;21.90;11.32;;;2.50;68.00;;;;;;5093707;28;20043;-68
2021/04/25 02:13:07;;;;;;;25.38;12.88;;;2.50;67.90;;;;;;5083758;28;20473;-68
2021/04/25 02:15:33;;;;;;;23.25;12.60;;;2.50;67.90;;;;;;5090789;28;20020;-68
2021/04/25 02:17:59;;;;;;;20.05;11.15;;;2.50;68.10;;;;;;5095423;28;20027;-68
2021/04/25 02:20:25;;;;;;;36.50;15.35;;;2.50;68.20;;;;;;5094599;28;20028;-72
2021/04/25 02:22:52;;;;;;;36.13;14.90;;;2.50;68.40;;;;;;5095131;28;20046;-68
2021/04/25 02:25:19;;;;;;;35.10;14.30;;;2.50;68.60;;;;;;5094845;28;20526;-68
2021/04/25 02:27:45;;;;;;;40.45;15.10;;;2.50;68.60;;;;;;5093338;28;20031;-68
2021/04/25 02:30:15;;;;;;;28.40;12.13;;;2.50;68.60;;;;;;5093320;28;20031;-68
2021/04/25 02:32:41;;;;;;;27.10;11.73;;;2.50;68.60;;;;;;5094228;28;20023;-68
2021/04/25 02:35:09;;;;;;;30.48;12.02;;;2.50;68.60;;;;;;5094866;28;20378;-68
2021/04/25 02:37:35;;;;;;;24.05;9.93;;;2.50;68.80;;;;;;5094403;28;20089;-69
2021/04/25 02:40:02;;;;;;;26.25;12.13;;;2.50;68.90;;;;;;5094469;28;20016;-68
2021/04/25 02:42:28;;;;;;;32.30;13.73;;;2.50;68.80;;;;;;5094097;28;20031;-69
2021/04/25 02:44:54;;;;;;;29.98;12.52;;;2.50;68.70;;;;;;5075689;28;20107;-68
2021/04/25 02:47:19;;;;;;;29.02;13.23;;;2.60;68.70;;;;;;5099390;28;20020;-68
2021/04/25 02:49:45;;;;;;;27.73;12.15;;;2.50;68.70;;;;;;5094246;28;20031;-68
2021/04/25 02:52:11;;;;;;;29.67;12.52;;;2.60;68.80;;;;;;5094575;28;20027;-69
2021/04/25 02:54:36;;;;;;;25.42;11.82;;;2.60;68.80;;;;;;5094266;28;20102;-68
2021/04/25 02:57:02;;;;;;;25.67;10.45;;;2.70;69.10;;;;;;5080156;28;20091;-68
2021/04/25 02:59:28;;;;;;;20.25;10.10;;;2.90;69.50;;;;;;5094836;28;20430;-68
2021/04/25 03:01:54;;;;;;;25.00;11.10;;;3.20;69.60;;;;;;5094187;28;20529;-68
2021/04/25 03:04:19;;;;;;;22.88;11.95;;;3.40;69.50;;;;;;5094634;28;20074;-68
2021/04/25 03:06:45;;;;;;;23.67;10.73;;;3.70;69.40;;;;;;5092265;28;20026;-68
2021/04/25 03:09:10;;;;;;;29.02;14.00;;;4.00;69.00;;;;;;5081137;28;20095;-68
2021/04/25 03:11:36;;;;;;;25.52;13.57;;;4.30;68.70;;;;;;5094310;28;20046;-69
2021/04/25 03:14:02;;;;;;;23.67;12.57;;;4.50;68.30;;;;;;5095351;28;20020;-68
2021/04/25 03:16:28;;;;;;;26.55;11.85;;;4.70;67.80;;;;;;5100744;28;20024;-68
2021/04/25 03:18:53;;;;;;;25.92;12.30;;;4.90;67.10;;;;;;5095723;28;20419;-68
2021/04/25 03:21:19;;;;;;;23.85;11.85;;;5.20;66.90;;;;;;5095326;28;20103;-68
2021/04/25 03:23:45;;;;;;;29.55;10.82;;;5.50;66.60;;;;;;5094244;28;20020;-68
2021/04/25 03:26:10;;;;;;;28.80;11.55;;;5.80;65.80;;;;;;5092337;28;20012;-68
2021/04/25 03:28:36;;;;;;;30.63;13.45;;;5.90;65.00;;;;;;5093124;28;20035;-68
2021/04/25 03:31:02;;;;;;;33.53;13.13;;;6.10;64.20;;;;;;5093447;28;20023;-68
2021/04/25 03:33:28;;;;;;;29.08;12.35;;;6.30;63.80;;;;;;5096961;28;20357;-68
2021/04/25 03:35:53;;;;;;;27.27;12.00;;;6.30;62.80;;;;;;5094770;28;20028;-68
2021/04/25 03:38:19;;;;;;;28.77;11.23;;;6.50;62.80;;;;;;5093570;28;20020;-68
2021/04/25 03:40:45;;;;;;;39.03;13.63;;;6.60;62.50;;;;;;5092578;28;20035;-70
2021/04/25 03:43:10;;;;;;;36.20;13.13;;;6.70;62.10;;;;;;5091329;28;20028;-69
2021/04/25 03:45:36;;;;;;;18.95;10.20;;;6.90;62.50;;;;;;5093565;28;20479;-68
2021/04/25 03:48:02;;;;;;;33.92;14.82;;;7.00;61.30;;;;;;5093359;28;20028;-68
2021/04/25 03:50:28;;;;;;;34.50;14.50;;;7.10;61.20;;;;;;5092756;28;20031;-69
2021/04/25 03:52:54;;;;;;;41.53;16.63;;;7.40;60.90;;;;;;5093297;28;20016;-69
2021/04/25 03:55:21;;;;;;;45.90;16.73;;;7.70;60.40;;;;;;5092830;28;20016;-70
2021/04/25 03:57:48;;;;;;;36.05;16.02;;;7.80;58.70;;;;;;5093227;28;20028;-67
2021/04/25 04:00:16;;;;;;;37.80;15.88;;;7.50;57.80;;;;;;5092833;28;20020;-68
2021/04/25 04:02:41;;;;;;;38.97;14.60;;;7.30;57.60;;;;;;5092929;28;20058;-68
2021/04/25 04:05:08;;;;;;;25.63;11.45;;;7.20;57.90;;;;;;5077583;28;20059;-68
2021/04/25 04:07:34;;;;;;;25.75;12.65;;;7.30;58.70;;;;;;5092564;28;20527;-68
2021/04/25 04:09:59;;;;;;;21.33;11.65;;;7.60;58.90;;;;;;5092917;28;20064;-68
2021/04/25 04:12:25;;;;;;;25.55;10.68;;;8.00;59.20;;;;;;5092246;28;20072;-73
2021/04/25 04:14:51;;;;;;;21.85;9.70;;;8.60;59.00;;;;;;5092995;28;20096;-68
2021/04/25 04:17:18;;;;;;;18.77;8.70;;;9.20;58.40;;;;;;5092245;28;20020;-68
2021/04/25 04:19:44;;;;;;;13.55;7.75;;;9.70;57.80;;;;;;5081721;28;20024;-68
2021/04/25 04:22:10;;;;;;;14.18;6.53;;;10.10;56.80;;;;;;5088623;28;20081;-68
2021/04/25 04:24:35;;;;;;;12.23;6.93;;;10.40;56.30;;;;;;5108035;28;20453;-68
2021/04/25 04:27:01;;;;;;;8.27;5.45;;;10.80;56.00;;;;;;5093090;28;20028;-68
2021/04/25 04:29:29;;;;;;;10.60;5.55;;;11.30;55.10;;;;;;5092883;28;20111;-68
2021/04/25 04:31:55;;;;;;;8.95;4.90;;;11.70;53.50;;;;;;5093081;28;20028;-68
2021/04/25 04:34:20;;;;;;;11.98;5.93;;;12.20;52.50;;;;;;5073572;28;20465;-68
2021/04/25 04:36:46;;;;;;;7.68;4.85;;;12.50;51.60;;;;;;5082606;28;20214;-68
2021/04/25 04:39:12;;;;;;;9.57;5.22;;;12.90;49.90;;;;;;5077157;28;20063;-68
2021/04/25 04:41:38;;;;;;;9.75;5.60;;;13.10;49.20;;;;;;5092815;28;20024;-68
2021/04/25 04:44:04;;;;;;;6.85;5.07;;;13.30;49.00;;;;;;5092844;28;20035;-68
2021/04/25 04:46:30;;;;;;;11.60;5.78;;;13.40;48.20;;;;;;5092082;28;20027;-68
2021/04/25 04:48:56;;;;;;;9.48;5.97;;;13.30;48.20;;;;;;5092940;28;20400;-68
2021/04/25 04:51:21;;;;;;;9.63;5.93;;;13.40;48.60;;;;;;5092325;28;20024;-69
2021/04/25 04:53:47;;;;;;;13.00;6.50;;;13.80;48.90;;;;;;5091380;28;20031;-68
2021/04/25 04:56:13;;;;;;;13.10;6.88;;;14.40;48.30;;;;;;5092694;28;20036;-69
2021/04/25 04:58:38;;;;;;;12.23;7.45;;;14.80;47.00;;;;;;5092325;28;20072;-68
2021/04/25 05:01:04;;;;;;;10.10;6.50;;;15.00;45.20;;;;;;5092609;28;20020;-68
2021/04/25 05:03:29;;;;;;;13.55;6.55;;;15.10;44.50;;;;;;5077354;28;20036;-68
2021/04/25 05:05:55;;;;;;;19.35;10.98;;;14.70;43.00;;;;;;5092550;28;20421;-68
2021/04/25 05:08:21;;;;;;;24.73;11.30;;;14.00;43.00;;;;;;5092205;28;20347;-71
2021/04/25 05:10:46;;;;;;;21.13;10.43;;;13.30;44.00;;;;;;5092069;28;20051;-68
2021/04/25 05:13:12;;;;;;;27.50;13.65;;;12.60;44.40;;;;;;5093102;28;20044;-68
2021/04/25 05:15:40;;;;;;;23.45;11.13;;;12.20;45.90;;;;;;5091600;28;20123;-68
2021/04/25 05:18:07;;;;;;;21.08;10.90;;;11.90;45.80;;;;;;5092755;28;20024;-68
2021/04/25 05:20:33;;;;;;;23.67;11.30;;;11.90;46.90;;;;;;5094190;28;20032;-69
2021/04/25 05:22:59;;;;;;;18.02;9.15;;;12.20;47.40;;;;;;5087071;28;20520;-69
2021/04/25 05:25:26;;;;;;;17.55;10.32;;;12.60;47.20;;;;;;5091707;28;20366;-69
2021/04/25 05:27:52;;;;;;;19.23;9.48;;;13.00;46.50;;;;;;5088674;28;20029;-69
2021/04/25 05:30:18;;;;;;;14.88;8.05;;;13.30;46.10;;;;;;5089426;28;20027;-69
2021/04/25 05:32:44;;;;;;;10.95;6.38;;;13.50;45.70;;;;;;5095466;28;20021;-68
2021/04/25 05:35:11;;;;;;;13.45;6.32;;;13.40;45.20;;;;;;5095787;28;20355;-68
2021/04/25 05:37:37;;;;;;;10.40;5.95;;;13.30;45.20;;;;;;5095326;28;20024;-69
2021/04/25 05:40:04;;;;;;;12.93;7.07;;;13.20;45.60;;;;;;5095798;28;20012;-69
2021/04/25 05:42:30;;;;;;;8.02;5.03;;;13.50;46.60;;;;;;5095504;28;20028;-69
2021/04/25 05:44:56;;;;;;;8.30;4.70;;;14.30;46.50;;;;;;5095444;28;20027;-68
2021/04/25 05:47:21;;;;;;;7.50;4.60;;;14.90;45.20;;;;;;5094001;28;20032;-69
2021/04/25 05:49:47;;;;;;;7.55;4.15;;;15.20;44.10;;;;;;5095239;28;20099;-69
2021/04/25 05:52:13;;;;;;;6.50;4.10;;;15.70;44.10;;;;;;5095287;28;20103;-67
2021/04/25 05:54:39;;;;;;;7.22;3.38;;;15.90;43.00;;;;;;5080419;28;20473;-67
2021/04/25 05:57:07;;;;;;;7.50;3.03;;;15.80;41.80;;;;;;5074020;28;20037;-69
2021/04/25 05:59:34;;;;;;;7.82;3.00;;;15.90;41.20;;;;;;5091140;28;20432;-69
2021/04/25 06:01:59;;;;;;;5.43;3.13;;;16.00;40.20;;;;;;5093087;28;20129;-70
2021/04/25 06:04:25;;;;;;;7.10;2.75;;;15.60;39.90;;;;;;5094935;28;20103;-72
2021/04/25 06:06:51;;;;;;;4.53;2.65;;;15.60;40.60;;;;;;5079300;28;20021;-69
2021/04/25 06:09:16;;;;;;;6.07;3.13;;;15.80;41.60;;;;;;5086386;28;20024;-70
2021/04/25 06:11:42;;;;;;;4.60;2.83;;;16.30;41.80;;;;;;5090640;28;20020;-68
2021/04/25 06:14:08;;;;;;;5.53;3.10;;;16.20;40.20;;;;;;5094664;28;20012;-68
2021/04/25 06:16:34;;;;;;;12.40;5.75;;;15.70;39.70;;;;;;5081950;28;20052;-68
2021/04/25 06:19:00;;;;;;;16.80;7.95;;;15.10;40.50;;;;;;5092453;28;20399;-68
2021/04/25 06:21:26;;;;;;;20.20;7.97;;;14.80;41.40;;;;;;5094518;28;20045;-67
2021/04/25 06:23:52;;;;;;;13.68;7.50;;;14.60;42.10;;;;;;5079555;28;20035;-68
2021/04/25 06:26:18;;;;;;;20.33;8.57;;;14.30;41.50;;;;;;5094856;28;20062;-68
2021/04/25 06:28:43;;;;;;;27.67;14.23;;;14.30;42.50;;;;;;5094674;28;20044;-68
2021/04/25 06:31:09;;;;;;;15.93;7.80;;;14.70;42.90;;;;;;5072790;28;20027;-68
2021/04/25 06:33:35;;;;;;;9.23;4.45;;;15.50;43.10;;;;;;5086614;28;20028;-68
2021/04/25 06:36:01;;;;;;;6.30;3.42;;;16.20;42.20;;;;;;5094078;28;20073;-68
2021/04/25 06:38:26;;;;;;;7.75;3.92;;;16.70;41.10;;;;;;5094348;28;20020;-72
2021/04/25 06:40:52;;;;;;;8.20;3.47;;;16.90;39.70;;;;;;5082504;28;20100;-69
2021/04/25 06:43:18;;;;;;;6.93;3.03;;;17.40;39.40;;;;;;5092219;28;20035;-68
2021/04/25 06:45:44;;;;;;;7.80;3.67;;;17.50;37.70;;;;;;5083368;28;20021;-68
2021/04/25 06:48:10;;;;;;;12.35;5.88;;;17.30;37.50;;;;;;5090341;28;20047;-68
2021/04/25 06:50:35;;;;;;;11.57;6.03;;;16.80;38.10;;;;;;5086444;28;20355;-67
2021/04/25 06:53:01;;;;;;;16.05;7.65;;;16.20;37.80;;;;;;5087465;28;20020;-68
2021/04/25 06:55:27;;;;;;;7.65;3.67;;;15.50;38.70;;;;;;5094715;28;20023;-68
2021/04/25 06:57:53;;;;;;;15.65;6.50;;;14.90;39.50;;;;;;5082790;28;20095;-68
2021/04/25 07:00:23;;;;;;;27.58;8.40;;;14.30;39.70;;;;;;5092342;28;20019;-68
2021/04/25 07:02:49;;;;;;;30.10;13.23;;;13.70;40.20;;;;;;5094284;28;20104;-69
2021/04/25 07:05:15;;;;;;;22.83;9.88;;;13.30;41.10;;;;;;5094053;28;20020;-68
2021/04/25 07:07:41;;;;;;;11.20;4.85;;;13.60;42.60;;;;;;5094259;28;20519;-68
2021/04/25 07:10:08;;;;;;;17.75;6.70;;;14.40;41.90;;;;;;5094485;28;20096;-68
2021/04/25 07:12:33;;;;;;;28.92;11.90;;;15.20;41.60;;;;;;5094450;28;20024;-68
2021/04/25 07:14:59;;;;;;;28.75;13.20;;;15.80;40.30;;;;;;5094295;28;20027;-68
2021/04/25 07:17:25;;;;;;;31.25;12.55;;;16.20;39.60;;;;;;5088943;28;20039;-68
2021/04/25 07:19:51;;;;;;;87.45;26.25;;;16.70;39.40;;;;;;5086660;28;20362;-67
2021/04/25 07:22:17;;;;;;;35.72;16.38;;;17.00;38.40;;;;;;5095389;28;20097;-67
2021/04/25 07:24:43;;;;;;;36.42;14.55;;;17.50;38.20;;;;;;5083672;28;20024;-68
2021/04/25 07:27:08;;;;;;;24.80;11.95;;;18.00;37.80;;;;;;5088578;28;20027;-68
2021/04/25 07:29:34;;;;;;;48.45;21.95;;;18.40;36.00;;;;;;5085728;28;20455;-68
2021/04/25 07:32:00;;;;;;;41.55;17.58;;;18.60;36.20;;;;;;5088793;28;20024;-69
2021/04/25 07:34:28;;;;;;;33.08;13.48;;;19.10;36.30;;;;;;5087987;28;20455;-74
2021/04/25 07:36:54;;;;;;;13.95;5.65;;;19.30;35.90;;;;;;5084979;28;20016;-69
2021/04/25 07:39:20;;;;;;;10.38;4.22;;;19.70;36.10;;;;;;5077714;28;20023;-69
2021/04/25 07:41:46;;;;;;;7.43;3.60;;;20.30;35.70;;;;;;5085696;28;20447;-69
2021/04/25 07:44:12;;;;;;;25.10;5.50;;;20.60;34.40;;;;;;5092194;28;20024;-69
2021/04/25 07:46:38;;;;;;;12.55;4.68;;;20.60;34.00;;;;;;5092526;28;20134;-69
2021/04/25 07:49:04;;;;;;;8.60;4.28;;;20.60;33.80;;;;;;5082732;28;20032;-69
2021/04/25 07:51:30;;;;;;;15.38;5.45;;;20.50;33.30;;;;;;5072815;28;20024;-69
2021/04/25 07:53:58;;;;;;;18.70;7.50;;;20.30;33.00;;;;;;5093458;28;20031;-68
2021/04/25 07:56:24;;;;;;;10.60;4.70;;;20.40;33.70;;;;;;5109035;28;20504;-69
2021/04/25 07:58:50;;;;;;;6.85;4.03;;;20.60;33.50;;;;;;5071351;28;20036;-68
2021/04/25 08:01:15;;;;;;;6.85;4.07;;;20.80;32.90;;;;;;5088488;28;20458;-68
2021/04/25 08:03:41;;;;;;;8.30;3.90;;;20.30;32.60;;;;;;5071504;28;20032;-69
2021/04/25 08:06:07;;;;;;;9.15;4.55;;;19.80;33.00;;;;;;5081319;28;20055;-68
2021/04/25 08:08:33;;;;;;;6.82;3.67;;;19.30;33.30;;;;;;5076820;28;20115;-69
2021/04/25 08:10:58;;;;;;;6.28;3.72;;;19.00;34.00;;;;;;5083810;28;20051;-68
2021/04/25 08:13:24;;;;;;;8.90;4.28;;;18.80;34.00;;;;;;5086657;28;20016;-69
2021/04/25 08:15:50;;;;;;;8.30;3.90;;;18.40;33.80;;;;;;5092419;28;20012;-69
2021/04/25 08:18:16;;;;;;;9.35;4.28;;;17.80;34.00;;;;;;5093012;28;20362;-68
2021/04/25 08:20:41;;;;;;;7.82;4.13;;;17.10;34.50;;;;;;5092297;28;20503;-68
2021/04/25 08:23:07;;;;;;;6.43;4.03;;;16.60;35.20;;;;;;5093000;28;20103;-68
2021/04/25 08:25:33;;;;;;;7.53;4.05;;;16.60;36.70;;;;;;5092243;28;20020;-68
2021/04/25 08:27:59;;;;;;;6.03;3.90;;;17.30;36.90;;;;;;5092835;28;20103;-68
2021/04/25 08:30:25;;;;;;;7.63;4.18;;;18.30;36.50;;;;;;5092650;28;20450;-70
2021/04/25 08:32:51;;;;;;;6.65;3.50;;;19.30;36.00;;;;;;5092375;28;20099;-68
2021/04/25 08:35:18;;;;;;;8.40;3.78;;;19.90;34.90;;;;;;5093131;28;20515;-69
2021/04/25 08:37:45;;;;;;;6.85;3.72;;;20.20;33.80;;;;;;5091370;28;20107;-68
2021/04/25 08:40:11;;;;;;;5.90;3.40;;;20.00;32.80;;;;;;5092509;28;20016;-68
2021/04/25 08:42:37;;;;;;;8.57;3.63;;;19.90;32.80;;;;;;5092357;28;20056;-68
2021/04/25 08:45:04;;;;;;;5.40;3.15;;;20.00;32.90;;;;;;5092871;28;20056;-69
2021/04/25 08:47:31;;;;;;;7.10;3.38;;;19.90;32.50;;;;;;5091010;28;20446;-69
2021/04/25 08:50:00;;;;;;;7.05;3.40;;;19.60;33.10;;;;;;5092707;28;20031;-69
2021/04/25 08:52:26;;;;;;;10.70;3.85;;;19.10;32.30;;;;;;5091949;28;20054;-69
2021/04/25 08:54:53;;;;;;;7.10;3.75;;;18.60;33.20;;;;;;5096730;28;20027;-69
2021/04/25 08:57:19;;;;;;;7.13;3.88;;;18.40;33.20;;;;;;5088207;28;20017;-68
2021/04/25 08:59:45;;;;;;;7.35;3.75;;;18.40;33.80;;;;;;5095495;28;20024;-68
2021/04/25 09:02:10;;;;;;;7.63;3.75;;;18.30;34.20;;;;;;5096580;28;20023;-68
2021/04/25 09:04:36;;;;;;;8.65;4.22;;;18.10;34.00;;;;;;5096782;28;20035;-69
2021/04/25 09:07:09;;;;;;;9.68;4.00;;;17.60;33.70;;;;;;5097358;28;20020;-69
2021/04/25 09:09:46;;;;;;;7.05;4.03;;;17.10;34.20;;;;;;5097144;28;20044;-68
2021/04/25 09:12:15;;;;;;;10.60;5.63;;;16.90;34.70;;;;;;5097326;28;20418;-68
2021/04/25 09:14:41;;;;;;;9.82;5.78;;;16.70;35.20;;;;;;5096312;28;20080;-68
2021/04/25 09:17:08;;;;;;;11.27;4.07;;;16.40;34.90;;;;;;5098660;28;20016;-67
2021/04/25 09:19:47;;;;;;;7.82;4.70;;;16.30;35.10;;;;;;5100708;28;20044;-68
2021/04/25 09:22:13;;;;;;;10.23;4.68;;;16.30;35.70;;;;;;5084639;28;20034;-67
2021/04/25 09:24:39;;;;;;;8.02;4.63;;;16.80;36.40;;;;;;5100695;28;20024;-69
2021/04/25 09:27:05;;;;;;;6.55;4.07;;;17.20;35.80;;;;;;5096265;28;20476;-68
2021/04/25 09:29:51;;;;;;;9.70;4.72;;;17.30;35.30;;;;;;5088661;28;20470;-68
2021/04/25 09:32:23;;;;;;;9.73;5.13;;;17.40;35.20;;;;;;5092594;28;20032;-68
2021/04/25 09:34:49;;;;;;;9.07;4.82;;;17.40;35.20;;;;;;5086318;28;20021;-68
2021/04/25 09:37:18;;;;;;;10.82;5.00;;;17.30;35.30;;;;;;5089247;28;20103;-72
2021/04/25 09:40:02;;;;;;;6.97;4.07;;;17.70;35.90;;;;;;5081998;28;20020;-68
2021/04/25 09:42:30;;;;;;;7.63;4.00;;;18.20;34.90;;;;;;5094113;28;20024;-68
2021/04/25 09:44:55;;;;;;;8.88;4.93;;;18.40;34.50;;;;;;5095543;28;20477;-69
2021/04/25 09:47:32;;;;;;;9.23;4.88;;;18.30;34.20;;;;;;5084945;28;20017;-68
2021/04/25 09:50:00;;;;;;;7.78;4.25;;;18.40;34.20;;;;;;5093657;28;20113;-68
2021/04/25 09:52:38;;;;;;;7.60;4.50;;;18.50;34.20;;;;;;5085224;28;20028;-71
2021/04/25 09:55:39;;;;;;;7.07;4.32;;;18.30;34.30;;;;;;5093337;28;20035;-68
2021/04/25 09:58:11;;;;;;;9.45;3.97;;;18.40;34.70;;;;;;5051357;28;20036;-68
2021/04/25 10:00:47;;;;;;;9.38;4.07;;;18.90;34.80;;;;;;5081418;28;20365;-68
2021/04/25 10:03:13;;;;;;;7.65;4.03;;;19.60;34.60;;;;;;5095746;28;20027;-68
2021/04/25 10:05:55;;;;;;;7.97;4.00;;;20.00;34.10;;;;;;5094080;28;20020;-68
2021/04/25 10:08:32;;;;;;;7.75;4.15;;;20.60;33.90;;;;;;5079390;28;20104;-69
2021/04/25 10:11:03;;;;;;;8.13;4.18;;;21.40;32.30;;;;;;5110737;28;20135;-70
2021/04/25 10:13:33;;;;;;;7.93;3.80;;;21.50;30.90;;;;;;5094984;28;20016;-70
2021/04/25 10:16:00;;;;;;;6.72;3.88;;;21.20;31.10;;;;;;5110850;28;20027;-68
2021/04/25 10:18:26;;;;;;;10.23;4.80;;;20.80;30.90;;;;;;5093239;28;20373;-71
2021/04/25 10:20:53;;;;;;;39.85;8.23;;;20.10;31.20;;;;;;5073920;28;20029;-68
2021/04/25 10:23:20;;;;;;;29.13;6.80;;;19.10;31.70;;;;;;5090558;28;20024;-68
2021/04/25 10:25:46;;;;;;;11.45;5.07;;;18.30;32.80;;;;;;5093116;28;20070;-68
2021/04/25 10:28:18;;;;;;;7.55;3.90;;;17.80;33.80;;;;;;5084228;28;20056;-68
2021/04/25 10:30:46;;;;;;;6.07;4.00;;;17.40;34.40;;;;;;5090484;28;20504;-68
2021/04/25 10:33:12;;;;;;;12.93;4.32;;;17.10;34.70;;;;;;5094649;28;20023;-68
2021/04/25 10:35:37;;;;;;;6.80;3.92;;;16.80;35.00;;;;;;5094124;28;20370;-67
2021/04/25 10:38:07;;;;;;;19.05;5.97;;;16.50;35.00;;;;;;5094776;28;20043;-68
2021/04/25 10:40:45;;;;;;;25.35;5.75;;;16.20;35.20;;;;;;5089344;28;20020;-69
2021/04/25 10:43:11;;;;;;;14.48;5.35;;;16.00;35.90;;;;;;5093523;28;20363;-68
2021/04/25 10:46:01;;;;;;;11.57;5.00;;;15.90;36.30;;;;;;5093576;28;20024;-68
2021/04/25 10:48:32;;;;;;;6.85;4.07;;;16.00;37.10;;;;;;5079205;28;20046;-69
2021/04/25 10:51:12;;;;;;;13.20;5.93;;;16.20;36.60;;;;;;5094641;28;20028;-70
2021/04/25 10:53:42;;;;;;;7.13;4.55;;;16.80;36.90;;;;;;5094311;28;20396;-69
2021/04/25 10:56:13;;;;;;;17.23;4.72;;;17.50;36.20;;;;;;5093414;28;20371;-69
2021/04/25 10:58:41;;;;;;;11.63;4.20;;;18.20;35.90;;;;;;5079185;28;20023;-69
2021/04/25 11:01:08;;;;;;;7.97;4.40;;;18.70;35.00;;;;;;5093797;28;20028;-69
2021/04/25 11:03:33;;;;;;;7.63;3.58;;;18.70;34.90;;;;;;5094898;28;20047;-69
2021/04/25 11:06:00;;;;;;;7.45;3.95;;;18.60;34.00;;;;;;5094531;28;20055;-69
2021/04/25 11:08:32;;;;;;;6.63;3.88;;;18.40;33.60;;;;;;5096134;28;20019;-72
2021/04/25 11:10:58;;;;;;;8.18;3.70;;;18.10;33.60;;;;;;5091142;28;20040;-69
2021/04/25 11:13:45;;;;;;;6.40;3.88;;;17.80;33.80;;;;;;5089682;28;20042;-68
2021/04/25 11:16:17;;;;;;;9.75;5.30;;;17.50;34.40;;;;;;5084384;28;20020;-68
2021/04/25 11:19:01;;;;;;;6.80;4.72;;;17.30;34.60;;;;;;5094374;28;20016;-69
2021/04/25 11:24:19;;;;;;;10.98;4.38;;;17.80;35.00;;;;;;5090241;28;20093;-68
2021/04/25 11:26:46;;;;;;;11.63;4.70;;;18.30;34.90;;;;;;5080405;28;20032;-69
2021/04/25 11:29:16;;;;;;;15.05;4.70;;;19.10;35.00;;;;;;5091648;28;20099;-69
2021/04/25 11:31:45;;;;;;;23.05;5.07;;;19.50;34.30;;;;;;5093959;28;20477;-69
2021/04/25 11:34:23;;;;;;;15.80;4.50;;;19.50;32.50;;;;;;5093484;28;20818;-68
2021/04/25 11:36:50;;;;;;;12.15;5.32;;;19.10;32.50;;;;;;5093308;28;20020;-68
2021/04/25 11:39:17;;;;;;;10.02;4.07;;;18.50;32.60;;;;;;5077924;28;20151;-68
2021/04/25 11:41:44;;;;;;;6.75;3.72;;;18.00;33.50;;;;;;5093139;28;20050;-68
2021/04/25 11:44:11;;;;;;;7.03;3.65;;;17.70;33.80;;;;;;5080944;28;20052;-69
2021/04/25 11:46:37;;;;;;;6.03;3.75;;;17.50;34.30;;;;;;5089810;28;20040;-68
2021/04/25 11:49:07;;;;;;;6.70;3.67;;;17.50;34.70;;;;;;5093168;28;20052;-68
2021/04/25 11:51:33;;;;;;;7.22;4.00;;;17.70;34.90;;;;;;5077491;28;20028;-68
2021/04/25 11:53:59;;;;;;;11.48;4.00;;;17.70;34.40;;;;;;5093472;28;20421;-69
2021/04/25 11:56:34;;;;;;;6.57;3.70;;;17.70;34.30;;;;;;5093058;28;20020;-71
2021/04/25 11:59:18;;;;;;;6.97;4.20;;;17.60;34.40;;;;;;5080066;28;20474;-69
2021/04/25 12:01:44;;;;;;;6.13;3.63;;;17.60;34.80;;;;;;5077705;28;20364;-68
2021/04/25 12:04:09;;;;;;;12.40;5.25;;;17.60;34.70;;;;;;5084439;28;20423;-68
2021/04/25 12:07:04;;;;;;;10.65;4.68;;;17.40;34.50;;;;;;5071512;28;20058;-69
2021/04/25 12:09:36;;;;;;;16.27;7.25;;;17.10;34.70;;;;;;5073238;28;20470;-69
2021/04/25 12:12:06;;;;;;;33.25;6.90;;;17.10;35.30;;;;;;5077308;28;20029;-68
2021/04/25 12:14:32;;;;;;;7.95;3.47;;;16.90;35.20;;;;;;5082489;28;20366;-69
2021/04/25 12:17:12;;;;;;;12.73;5.07;;;16.70;35.50;;;;;;5089068;28;20044;-69
2021/04/25 12:19:38;;;;;;;12.75;4.40;;;16.40;36.00;;;;;;5082661;28;20024;-69
2021/04/25 12:22:03;;;;;;;9.85;5.07;;;16.20;36.70;;;;;;5087715;28;20020;-69
2021/04/25 12:24:30;;;;;;;6.72;4.32;;;15.90;36.60;;;;;;5092924;28;20065;-69
2021/04/25 12:26:56;;;;;;;6.95;4.10;;;15.70;37.70;;;;;;5092633;28;20115;-68
2021/04/25 12:29:38;;;;;;;8.32;4.32;;;15.60;37.70;;;;;;5099223;28;20186;-69
2021/04/25 12:32:05;;;;;;;10.10;4.00;;;15.50;38.20;;;;;;5084770;28;20366;-69
2021/04/25 12:34:32;;;;;;;7.57;4.15;;;15.60;38.60;;;;;;5094461;28;20028;-69
2021/04/25 12:37:00;;;;;;;7.82;4.60;;;15.90;38.80;;;;;;5095338;28;20047;-68
2021/04/25 12:39:41;;;;;;;6.90;3.95;;;16.20;38.40;;;;;;5097359;28;20097;-71
2021/04/25 12:42:20;;;;;;;7.40;3.75;;;16.40;38.50;;;;;;5090222;28;20029;-68
2021/04/25 12:44:46;;;;;;;7.90;4.40;;;16.50;38.00;;;;;;5111168;28;20028;-67